sensor_id;sensor_type;location;lat;lon;timestamp;temperature;humidity
74617;DHT22;63123;50.906;4.198;2023-11-21T00:00:33;18.00;60.80
74617;DHT22;63123;50.906;4.198;2023-11-21T00:02:59;18.00;60.90
74617;DHT22;63123;50.906;4.198;2023-11-21T00:05:24;18.00;60.70
74617;DHT22;63123;50.906;4.198;2023-11-21T00:07:50;18.00;60.80
74617;DHT22;63123;50.906;4.198;2023-11-21T00:10:16;18.00;60.70
74617;DHT22;63123;50.906;4.198;2023-11-21T00:12:42;18.00;60.70
74617;DHT22;63123;50.906;4.198;2023-11-21T00:15:07;18.00;61.20
74617;DHT22;63123;50.906;4.198;2023-11-21T00:17:37;18.00;60.50
74617;DHT22;63123;50.906;4.198;2023-11-21T00:20:03;18.00;60.60
74617;DHT22;63123;50.906;4.198;2023-11-21T00:22:32;18.00;60.50
74617;DHT22;63123;50.906;4.198;2023-11-21T00:24:57;18.00;60.30
74617;DHT22;63123;50.906;4.198;2023-11-21T00:27:23;18.00;60.30
74617;DHT22;63123;50.906;4.198;2023-11-21T00:29:48;18.00;60.30
74617;DHT22;63123;50.906;4.198;2023-11-21T00:32:14;18.00;60.20
74617;DHT22;63123;50.906;4.198;2023-11-21T00:34:39;18.00;60.20
74617;DHT22;63123;50.906;4.198;2023-11-21T00:37:05;17.90;60.00
74617;DHT22;63123;50.906;4.198;2023-11-21T00:39:30;18.00;59.90
74617;DHT22;63123;50.906;4.198;2023-11-21T00:41:57;18.00;59.90
74617;DHT22;63123;50.906;4.198;2023-11-21T00:44:22;17.90;60.00
74617;DHT22;63123;50.906;4.198;2023-11-21T00:46:48;17.90;59.80
74617;DHT22;63123;50.906;4.198;2023-11-21T00:49:13;17.90;59.80
74617;DHT22;63123;50.906;4.198;2023-11-21T00:51:39;18.00;59.80
74617;DHT22;63123;50.906;4.198;2023-11-21T00:54:05;18.00;59.80
74617;DHT22;63123;50.906;4.198;2023-11-21T00:56:32;17.90;59.70
74617;DHT22;63123;50.906;4.198;2023-11-21T00:58:57;18.00;59.70
74617;DHT22;63123;50.906;4.198;2023-11-21T01:01:22;18.00;59.70
74617;DHT22;63123;50.906;4.198;2023-11-21T01:03:48;18.00;59.80
74617;DHT22;63123;50.906;4.198;2023-11-21T01:06:14;18.00;59.70
74617;DHT22;63123;50.906;4.198;2023-11-21T01:08:40;17.90;59.70
74617;DHT22;63123;50.906;4.198;2023-11-21T01:11:05;18.00;59.80
74617;DHT22;63123;50.906;4.198;2023-11-21T01:13:33;17.90;59.80
74617;DHT22;63123;50.906;4.198;2023-11-21T01:16:00;18.00;59.80
74617;DHT22;63123;50.906;4.198;2023-11-21T01:18:26;18.00;59.80
74617;DHT22;63123;50.906;4.198;2023-11-21T01:20:51;18.00;59.80
74617;DHT22;63123;50.906;4.198;2023-11-21T01:23:19;18.00;59.90
74617;DHT22;63123;50.906;4.198;2023-11-21T01:25:44;18.00;60.00
74617;DHT22;63123;50.906;4.198;2023-11-21T01:28:10;18.00;59.90
74617;DHT22;63123;50.906;4.198;2023-11-21T01:30:35;18.00;60.00
74617;DHT22;63123;50.906;4.198;2023-11-21T01:33:01;18.00;60.00
74617;DHT22;63123;50.906;4.198;2023-11-21T01:35:26;18.00;60.10
74617;DHT22;63123;50.906;4.198;2023-11-21T01:37:52;17.90;60.00
74617;DHT22;63123;50.906;4.198;2023-11-21T01:40:17;18.00;60.00
74617;DHT22;63123;50.906;4.198;2023-11-21T01:42:43;18.00;59.90
74617;DHT22;63123;50.906;4.198;2023-11-21T01:45:09;18.00;59.90
74617;DHT22;63123;50.906;4.198;2023-11-21T01:47:35;17.90;60.00
74617;DHT22;63123;50.906;4.198;2023-11-21T01:50:01;17.90;60.00
74617;DHT22;63123;50.906;4.198;2023-11-21T01:52:27;18.00;60.20
74617;DHT22;63123;50.906;4.198;2023-11-21T01:54:53;18.00;60.10
74617;DHT22;63123;50.906;4.198;2023-11-21T01:57:19;18.00;60.20
74617;DHT22;63123;50.906;4.198;2023-11-21T01:59:45;17.90;60.10
74617;DHT22;63123;50.906;4.198;2023-11-21T02:02:13;18.00;60.30
74617;DHT22;63123;50.906;4.198;2023-11-21T02:04:38;18.00;60.20
74617;DHT22;63123;50.906;4.198;2023-11-21T02:07:04;18.00;60.10
74617;DHT22;63123;50.906;4.198;2023-11-21T02:09:32;17.90;60.20
74617;DHT22;63123;50.906;4.198;2023-11-21T02:11:59;17.90;60.20
74617;DHT22;63123;50.906;4.198;2023-11-21T02:14:25;17.90;60.80
74617;DHT22;63123;50.906;4.198;2023-11-21T02:16:52;17.90;60.10
74617;DHT22;63123;50.906;4.198;2023-11-21T02:19:18;18.00;60.20
74617;DHT22;63123;50.906;4.198;2023-11-21T02:21:49;18.00;60.30
74617;DHT22;63123;50.906;4.198;2023-11-21T02:24:15;18.00;60.30
74617;DHT22;63123;50.906;4.198;2023-11-21T02:26:41;18.00;60.30
74617;DHT22;63123;50.906;4.198;2023-11-21T02:29:06;17.90;60.20
74617;DHT22;63123;50.906;4.198;2023-11-21T02:31:36;18.00;60.30
74617;DHT22;63123;50.906;4.198;2023-11-21T02:34:02;18.00;60.30
74617;DHT22;63123;50.906;4.198;2023-11-21T02:36:28;18.00;60.30
74617;DHT22;63123;50.906;4.198;2023-11-21T02:38:53;18.00;60.30
74617;DHT22;63123;50.906;4.198;2023-11-21T02:41:19;18.00;60.30
74617;DHT22;63123;50.906;4.198;2023-11-21T02:43:45;18.00;60.30
74617;DHT22;63123;50.906;4.198;2023-11-21T02:46:10;17.90;60.20
74617;DHT22;63123;50.906;4.198;2023-11-21T02:48:36;18.00;60.30
74617;DHT22;63123;50.906;4.198;2023-11-21T02:51:01;17.90;60.20
74617;DHT22;63123;50.906;4.198;2023-11-21T02:53:27;17.90;60.20
74617;DHT22;63123;50.906;4.198;2023-11-21T02:55:53;18.00;60.30
74617;DHT22;63123;50.906;4.198;2023-11-21T02:58:18;17.90;60.20
74617;DHT22;63123;50.906;4.198;2023-11-21T03:00:44;17.90;60.20
74617;DHT22;63123;50.906;4.198;2023-11-21T03:03:09;18.00;60.30
74617;DHT22;63123;50.906;4.198;2023-11-21T03:05:35;18.00;60.30
74617;DHT22;63123;50.906;4.198;2023-11-21T03:08:02;17.90;60.20
74617;DHT22;63123;50.906;4.198;2023-11-21T03:10:27;17.90;60.20
74617;DHT22;63123;50.906;4.198;2023-11-21T03:12:53;18.00;60.30
74617;DHT22;63123;50.906;4.198;2023-11-21T03:15:18;18.00;60.30
74617;DHT22;63123;50.906;4.198;2023-11-21T03:17:44;18.00;60.30
74617;DHT22;63123;50.906;4.198;2023-11-21T03:20:10;17.90;60.20
74617;DHT22;63123;50.906;4.198;2023-11-21T03:22:36;18.00;60.30
74617;DHT22;63123;50.906;4.198;2023-11-21T03:25:02;17.90;60.20
74617;DHT22;63123;50.906;4.198;2023-11-21T03:27:28;17.90;60.20
74617;DHT22;63123;50.906;4.198;2023-11-21T03:29:53;18.00;60.30
74617;DHT22;63123;50.906;4.198;2023-11-21T03:32:19;18.00;60.30
74617;DHT22;63123;50.906;4.198;2023-11-21T03:34:57;18.00;60.30
74617;DHT22;63123;50.906;4.198;2023-11-21T03:37:23;18.00;60.30
74617;DHT22;63123;50.906;4.198;2023-11-21T03:39:50;17.90;60.20
74617;DHT22;63123;50.906;4.198;2023-11-21T03:42:15;17.90;60.90
74617;DHT22;63123;50.906;4.198;2023-11-21T03:44:41;17.90;60.20
74617;DHT22;63123;50.906;4.198;2023-11-21T03:47:06;18.00;60.30
74617;DHT22;63123;50.906;4.198;2023-11-21T03:49:32;17.90;60.20
74617;DHT22;63123;50.906;4.198;2023-11-21T03:51:58;17.90;60.50
74617;DHT22;63123;50.906;4.198;2023-11-21T03:54:23;17.90;60.40
74617;DHT22;63123;50.906;4.198;2023-11-21T03:56:49;17.90;60.30
74617;DHT22;63123;50.906;4.198;2023-11-21T03:59:14;17.90;60.50
74617;DHT22;63123;50.906;4.198;2023-11-21T04:01:39;18.00;60.40
74617;DHT22;63123;50.906;4.198;2023-11-21T04:04:05;17.90;60.30
74617;DHT22;63123;50.906;4.198;2023-11-21T04:06:30;17.90;60.40
74617;DHT22;63123;50.906;4.198;2023-11-21T04:08:58;17.90;60.30
74617;DHT22;63123;50.906;4.198;2023-11-21T04:11:23;17.90;60.40
74617;DHT22;63123;50.906;4.198;2023-11-21T04:13:49;17.90;60.40
74617;DHT22;63123;50.906;4.198;2023-11-21T04:16:14;17.90;60.40
74617;DHT22;63123;50.906;4.198;2023-11-21T04:18:40;18.00;60.50
74617;DHT22;63123;50.906;4.198;2023-11-21T04:21:06;18.00;60.40
74617;DHT22;63123;50.906;4.198;2023-11-21T04:23:31;17.90;60.40
74617;DHT22;63123;50.906;4.198;2023-11-21T04:25:57;17.90;60.50
74617;DHT22;63123;50.906;4.198;2023-11-21T04:28:23;17.90;60.50
74617;DHT22;63123;50.906;4.198;2023-11-21T04:30:49;17.90;60.40
74617;DHT22;63123;50.906;4.198;2023-11-21T04:33:15;18.00;60.40
74617;DHT22;63123;50.906;4.198;2023-11-21T04:35:41;17.90;60.40
74617;DHT22;63123;50.906;4.198;2023-11-21T04:38:07;17.90;60.40
74617;DHT22;63123;50.906;4.198;2023-11-21T04:40:32;18.00;60.40
74617;DHT22;63123;50.906;4.198;2023-11-21T04:42:58;17.90;60.50
74617;DHT22;63123;50.906;4.198;2023-11-21T04:45:23;17.90;60.50
74617;DHT22;63123;50.906;4.198;2023-11-21T04:47:49;17.90;60.50
74617;DHT22;63123;50.906;4.198;2023-11-21T04:50:14;17.90;60.40
74617;DHT22;63123;50.906;4.198;2023-11-21T04:52:40;17.90;60.50
74617;DHT22;63123;50.906;4.198;2023-11-21T04:55:05;17.90;60.40
74617;DHT22;63123;50.906;4.198;2023-11-21T04:57:35;17.90;60.50
74617;DHT22;63123;50.906;4.198;2023-11-21T05:00:01;17.90;60.50
74617;DHT22;63123;50.906;4.198;2023-11-21T05:02:26;17.90;60.50
74617;DHT22;63123;50.906;4.198;2023-11-21T05:04:52;17.90;60.50
74617;DHT22;63123;50.906;4.198;2023-11-21T05:07:18;17.90;60.50
74617;DHT22;63123;50.906;4.198;2023-11-21T05:09:44;17.90;60.50
74617;DHT22;63123;50.906;4.198;2023-11-21T05:12:11;18.00;60.70
74617;DHT22;63123;50.906;4.198;2023-11-21T05:14:37;18.00;60.70
74617;DHT22;63123;50.906;4.198;2023-11-21T05:17:02;17.90;60.70
74617;DHT22;63123;50.906;4.198;2023-11-21T05:19:29;18.00;60.70
74617;DHT22;63123;50.906;4.198;2023-11-21T05:21:55;17.90;60.70
74617;DHT22;63123;50.906;4.198;2023-11-21T05:24:20;17.90;61.00
74617;DHT22;63123;50.906;4.198;2023-11-21T05:26:46;17.90;61.00
74617;DHT22;63123;50.906;4.198;2023-11-21T05:29:11;17.90;60.90
74617;DHT22;63123;50.906;4.198;2023-11-21T05:31:37;18.00;61.70
74617;DHT22;63123;50.906;4.198;2023-11-21T05:34:03;17.90;61.00
74617;DHT22;63123;50.906;4.198;2023-11-21T05:36:30;17.90;61.10
74617;DHT22;63123;50.906;4.198;2023-11-21T05:38:56;18.00;61.10
74617;DHT22;63123;50.906;4.198;2023-11-21T05:41:21;18.00;61.10
74617;DHT22;63123;50.906;4.198;2023-11-21T05:43:47;18.00;61.70
74617;DHT22;63123;50.906;4.198;2023-11-21T05:46:12;18.00;61.00
74617;DHT22;63123;50.906;4.198;2023-11-21T05:48:38;17.90;61.00
74617;DHT22;63123;50.906;4.198;2023-11-21T05:51:04;18.00;61.10
74617;DHT22;63123;50.906;4.198;2023-11-21T05:53:30;18.00;61.20
74617;DHT22;63123;50.906;4.198;2023-11-21T05:55:55;18.00;61.30
74617;DHT22;63123;50.906;4.198;2023-11-21T05:58:21;17.90;61.30
74617;DHT22;63123;50.906;4.198;2023-11-21T06:00:46;18.00;61.30
74617;DHT22;63123;50.906;4.198;2023-11-21T06:03:12;17.90;61.30
74617;DHT22;63123;50.906;4.198;2023-11-21T06:05:37;18.00;61.40
74617;DHT22;63123;50.906;4.198;2023-11-21T06:08:03;18.00;61.50
74617;DHT22;63123;50.906;4.198;2023-11-21T06:10:29;18.00;61.50
74617;DHT22;63123;50.906;4.198;2023-11-21T06:12:54;18.00;61.60
74617;DHT22;63123;50.906;4.198;2023-11-21T06:15:20;17.90;61.40
74617;DHT22;63123;50.906;4.198;2023-11-21T06:17:47;18.00;61.30
74617;DHT22;63123;50.906;4.198;2023-11-21T06:20:17;18.00;61.30
74617;DHT22;63123;50.906;4.198;2023-11-21T06:22:44;17.90;61.20
74617;DHT22;63123;50.906;4.198;2023-11-21T06:25:10;17.90;61.10
74617;DHT22;63123;50.906;4.198;2023-11-21T06:27:36;17.90;61.20
74617;DHT22;63123;50.906;4.198;2023-11-21T06:30:02;18.00;61.10
74617;DHT22;63123;50.906;4.198;2023-11-21T06:32:29;17.90;61.10
74617;DHT22;63123;50.906;4.198;2023-11-21T06:34:55;18.00;61.10
74617;DHT22;63123;50.906;4.198;2023-11-21T06:37:20;17.90;61.00
74617;DHT22;63123;50.906;4.198;2023-11-21T06:39:49;17.90;61.00
74617;DHT22;63123;50.906;4.198;2023-11-21T06:42:17;17.90;61.00
74617;DHT22;63123;50.906;4.198;2023-11-21T06:44:44;18.00;61.00
74617;DHT22;63123;50.906;4.198;2023-11-21T06:47:09;18.00;61.10
74617;DHT22;63123;50.906;4.198;2023-11-21T06:49:35;18.00;61.00
74617;DHT22;63123;50.906;4.198;2023-11-21T06:52:01;17.90;61.10
74617;DHT22;63123;50.906;4.198;2023-11-21T06:54:28;18.00;61.00
74617;DHT22;63123;50.906;4.198;2023-11-21T06:56:54;17.90;61.00
74617;DHT22;63123;50.906;4.198;2023-11-21T06:59:21;18.00;61.10
74617;DHT22;63123;50.906;4.198;2023-11-21T07:01:47;17.90;61.00
74617;DHT22;63123;50.906;4.198;2023-11-21T07:04:13;18.00;61.10
74617;DHT22;63123;50.906;4.198;2023-11-21T07:06:38;18.00;61.10
74617;DHT22;63123;50.906;4.198;2023-11-21T07:09:04;17.90;61.00
74617;DHT22;63123;50.906;4.198;2023-11-21T07:11:29;17.90;61.00
74617;DHT22;63123;50.906;4.198;2023-11-21T07:13:54;17.90;61.00
74617;DHT22;63123;50.906;4.198;2023-11-21T07:16:20;18.00;61.00
74617;DHT22;63123;50.906;4.198;2023-11-21T07:18:46;18.00;61.10
74617;DHT22;63123;50.906;4.198;2023-11-21T07:21:11;18.00;61.00
74617;DHT22;63123;50.906;4.198;2023-11-21T07:23:41;18.00;61.10
74617;DHT22;63123;50.906;4.198;2023-11-21T07:26:06;17.90;61.10
74617;DHT22;63123;50.906;4.198;2023-11-21T07:28:34;18.00;61.10
74617;DHT22;63123;50.906;4.198;2023-11-21T07:31:01;17.90;61.10
74617;DHT22;63123;50.906;4.198;2023-11-21T07:33:26;17.90;61.10
74617;DHT22;63123;50.906;4.198;2023-11-21T07:35:52;18.00;61.10
74617;DHT22;63123;50.906;4.198;2023-11-21T07:38:17;18.00;61.10
74617;DHT22;63123;50.906;4.198;2023-11-21T07:40:43;18.00;61.20
74617;DHT22;63123;50.906;4.198;2023-11-21T07:43:09;17.90;61.10
74617;DHT22;63123;50.906;4.198;2023-11-21T07:45:35;18.00;61.20
74617;DHT22;63123;50.906;4.198;2023-11-21T07:48:01;17.90;61.20
74617;DHT22;63123;50.906;4.198;2023-11-21T07:50:28;17.90;61.10
74617;DHT22;63123;50.906;4.198;2023-11-21T07:52:54;17.90;61.10
74617;DHT22;63123;50.906;4.198;2023-11-21T07:55:20;17.90;61.20
74617;DHT22;63123;50.906;4.198;2023-11-21T07:57:45;18.00;61.30
74617;DHT22;63123;50.906;4.198;2023-11-21T08:00:11;17.90;61.20
74617;DHT22;63123;50.906;4.198;2023-11-21T08:02:38;17.90;61.30
74617;DHT22;63123;50.906;4.198;2023-11-21T08:05:04;18.00;61.30
74617;DHT22;63123;50.906;4.198;2023-11-21T08:07:30;17.90;61.30
74617;DHT22;63123;50.906;4.198;2023-11-21T08:09:56;17.90;61.30
74617;DHT22;63123;50.906;4.198;2023-11-21T08:12:22;18.00;61.30
74617;DHT22;63123;50.906;4.198;2023-11-21T08:14:47;17.90;61.30
74617;DHT22;63123;50.906;4.198;2023-11-21T08:17:12;18.00;61.40
74617;DHT22;63123;50.906;4.198;2023-11-21T08:19:39;18.00;61.40
74617;DHT22;63123;50.906;4.198;2023-11-21T08:22:04;17.90;61.40
74617;DHT22;63123;50.906;4.198;2023-11-21T08:24:33;18.00;61.60
74617;DHT22;63123;50.906;4.198;2023-11-21T08:26:59;18.00;61.60
74617;DHT22;63123;50.906;4.198;2023-11-21T08:29:24;17.90;61.60
74617;DHT22;63123;50.906;4.198;2023-11-21T08:31:50;17.90;61.60
74617;DHT22;63123;50.906;4.198;2023-11-21T08:34:15;18.00;61.60
74617;DHT22;63123;50.906;4.198;2023-11-21T08:36:41;18.00;61.70
74617;DHT22;63123;50.906;4.198;2023-11-21T08:39:07;17.90;61.60
74617;DHT22;63123;50.906;4.198;2023-11-21T08:41:32;18.00;61.80
74617;DHT22;63123;50.906;4.198;2023-11-21T08:43:58;18.00;61.80
74617;DHT22;63123;50.906;4.198;2023-11-21T08:46:23;18.00;61.70
74617;DHT22;63123;50.906;4.198;2023-11-21T08:48:51;18.00;61.70
74617;DHT22;63123;50.906;4.198;2023-11-21T08:51:17;18.00;62.00
74617;DHT22;63123;50.906;4.198;2023-11-21T08:53:43;17.90;61.90
74617;DHT22;63123;50.906;4.198;2023-11-21T08:56:12;18.00;61.80
74617;DHT22;63123;50.906;4.198;2023-11-21T08:58:37;18.00;61.80
74617;DHT22;63123;50.906;4.198;2023-11-21T09:01:04;18.00;61.90
74617;DHT22;63123;50.906;4.198;2023-11-21T09:03:29;18.00;62.00
74617;DHT22;63123;50.906;4.198;2023-11-21T09:05:55;18.00;62.10
74617;DHT22;63123;50.906;4.198;2023-11-21T09:08:20;18.00;62.00
74617;DHT22;63123;50.906;4.198;2023-11-21T09:10:47;18.00;62.00
74617;DHT22;63123;50.906;4.198;2023-11-21T09:13:13;18.00;62.10
74617;DHT22;63123;50.906;4.198;2023-11-21T09:15:38;18.00;62.10
74617;DHT22;63123;50.906;4.198;2023-11-21T09:18:04;17.90;62.10
74617;DHT22;63123;50.906;4.198;2023-11-21T09:20:30;18.00;62.10
74617;DHT22;63123;50.906;4.198;2023-11-21T09:22:55;18.00;62.20
74617;DHT22;63123;50.906;4.198;2023-11-21T09:25:21;18.00;62.10
74617;DHT22;63123;50.906;4.198;2023-11-21T09:27:47;17.90;62.10
74617;DHT22;63123;50.906;4.198;2023-11-21T09:30:13;18.00;62.20
74617;DHT22;63123;50.906;4.198;2023-11-21T09:32:39;18.00;62.30
74617;DHT22;63123;50.906;4.198;2023-11-21T09:35:05;18.00;62.20
74617;DHT22;63123;50.906;4.198;2023-11-21T09:37:33;18.00;62.20
74617;DHT22;63123;50.906;4.198;2023-11-21T09:39:59;17.90;62.20
74617;DHT22;63123;50.906;4.198;2023-11-21T09:43:08;18.00;62.20
74617;DHT22;63123;50.906;4.198;2023-11-21T09:47:57;17.90;62.30
74617;DHT22;63123;50.906;4.198;2023-11-21T09:50:23;18.00;62.40
74617;DHT22;63123;50.906;4.198;2023-11-21T09:53:09;18.00;62.50
74617;DHT22;63123;50.906;4.198;2023-11-21T09:55:37;17.90;62.40
74617;DHT22;63123;50.906;4.198;2023-11-21T09:58:04;18.00;62.40
74617;DHT22;63123;50.906;4.198;2023-11-21T10:00:32;18.00;62.50
74617;DHT22;63123;50.906;4.198;2023-11-21T10:02:58;18.00;62.50
74617;DHT22;63123;50.906;4.198;2023-11-21T10:05:24;18.00;62.60
74617;DHT22;63123;50.906;4.198;2023-11-21T10:07:50;18.00;62.60
74617;DHT22;63123;50.906;4.198;2023-11-21T10:10:17;18.00;62.60
74617;DHT22;63123;50.906;4.198;2023-11-21T10:12:43;18.00;62.60
74617;DHT22;63123;50.906;4.198;2023-11-21T10:15:12;18.00;62.60
74617;DHT22;63123;50.906;4.198;2023-11-21T10:17:41;18.00;62.70
74617;DHT22;63123;50.906;4.198;2023-11-21T10:20:10;18.00;62.70
74617;DHT22;63123;50.906;4.198;2023-11-21T10:22:42;18.00;62.80
74617;DHT22;63123;50.906;4.198;2023-11-21T10:25:11;18.00;62.80
74617;DHT22;63123;50.906;4.198;2023-11-21T10:27:39;18.00;62.90
74617;DHT22;63123;50.906;4.198;2023-11-21T10:30:06;18.00;62.90
74617;DHT22;63123;50.906;4.198;2023-11-21T10:32:31;18.00;63.00
74617;DHT22;63123;50.906;4.198;2023-11-21T10:34:58;18.00;62.90
74617;DHT22;63123;50.906;4.198;2023-11-21T10:37:34;18.00;63.00
74617;DHT22;63123;50.906;4.198;2023-11-21T10:40:00;18.00;63.00
74617;DHT22;63123;50.906;4.198;2023-11-21T10:42:25;18.00;63.00
74617;DHT22;63123;50.906;4.198;2023-11-21T10:44:52;18.00;63.00
74617;DHT22;63123;50.906;4.198;2023-11-21T10:47:18;18.00;63.00
74617;DHT22;63123;50.906;4.198;2023-11-21T10:49:44;18.00;63.00
74617;DHT22;63123;50.906;4.198;2023-11-21T10:52:12;18.00;63.60
74617;DHT22;63123;50.906;4.198;2023-11-21T10:54:42;18.00;63.00
74617;DHT22;63123;50.906;4.198;2023-11-21T10:57:08;18.00;63.00
74617;DHT22;63123;50.906;4.198;2023-11-21T10:59:35;18.00;63.00
74617;DHT22;63123;50.906;4.198;2023-11-21T11:02:01;18.00;63.10
74617;DHT22;63123;50.906;4.198;2023-11-21T11:04:28;18.00;63.00
74617;DHT22;63123;50.906;4.198;2023-11-21T11:06:55;18.00;63.10
74617;DHT22;63123;50.906;4.198;2023-11-21T11:09:22;18.00;63.10
74617;DHT22;63123;50.906;4.198;2023-11-21T11:11:48;18.00;63.10
74617;DHT22;63123;50.906;4.198;2023-11-21T11:14:14;18.00;63.10
74617;DHT22;63123;50.906;4.198;2023-11-21T11:16:40;18.00;63.20
74617;DHT22;63123;50.906;4.198;2023-11-21T11:19:09;18.00;63.20
74617;DHT22;63123;50.906;4.198;2023-11-21T11:29:59;18.00;63.60
74617;DHT22;63123;50.906;4.198;2023-11-21T11:33:04;18.00;63.60
74617;DHT22;63123;50.906;4.198;2023-11-21T11:35:26;18.00;63.70
74617;DHT22;63123;50.906;4.198;2023-11-21T11:37:55;18.00;63.70
74617;DHT22;63123;50.906;4.198;2023-11-21T11:40:21;18.00;63.80
74617;DHT22;63123;50.906;4.198;2023-11-21T11:43:00;18.00;63.80
74617;DHT22;63123;50.906;4.198;2023-11-21T11:45:34;18.00;63.90
74617;DHT22;63123;50.906;4.198;2023-11-21T11:48:01;18.00;63.90
74617;DHT22;63123;50.906;4.198;2023-11-21T11:50:27;18.00;64.00
74617;DHT22;63123;50.906;4.198;2023-11-21T11:52:53;18.00;63.90
74617;DHT22;63123;50.906;4.198;2023-11-21T11:55:24;18.00;64.00
74617;DHT22;63123;50.906;4.198;2023-11-21T11:57:51;18.00;64.00
74617;DHT22;63123;50.906;4.198;2023-11-21T12:00:17;18.00;64.00
74617;DHT22;63123;50.906;4.198;2023-11-21T12:02:47;18.00;64.10
74617;DHT22;63123;50.906;4.198;2023-11-21T12:05:13;18.00;64.00
74617;DHT22;63123;50.906;4.198;2023-11-21T12:07:43;18.00;64.00
74617;DHT22;63123;50.906;4.198;2023-11-21T12:10:10;18.00;64.00
74617;DHT22;63123;50.906;4.198;2023-11-21T12:12:36;18.00;64.00
74617;DHT22;63123;50.906;4.198;2023-11-21T12:15:04;18.00;64.00
74617;DHT22;63123;50.906;4.198;2023-11-21T12:17:30;18.00;63.90
74617;DHT22;63123;50.906;4.198;2023-11-21T12:20:01;18.10;64.00
74617;DHT22;63123;50.906;4.198;2023-11-21T12:22:28;18.00;63.90
74617;DHT22;63123;50.906;4.198;2023-11-21T12:24:54;18.00;63.80
74617;DHT22;63123;50.906;4.198;2023-11-21T12:27:20;18.00;63.90
74617;DHT22;63123;50.906;4.198;2023-11-21T12:29:46;18.00;63.70
74617;DHT22;63123;50.906;4.198;2023-11-21T12:32:11;18.00;63.70
74617;DHT22;63123;50.906;4.198;2023-11-21T12:34:38;18.10;63.90
74617;DHT22;63123;50.906;4.198;2023-11-21T12:37:04;18.10;63.80
74617;DHT22;63123;50.906;4.198;2023-11-21T12:39:30;18.10;63.90
74617;DHT22;63123;50.906;4.198;2023-11-21T12:41:55;18.10;63.90
74617;DHT22;63123;50.906;4.198;2023-11-21T12:44:21;18.00;63.90
74617;DHT22;63123;50.906;4.198;2023-11-21T12:46:49;18.10;63.90
74617;DHT22;63123;50.906;4.198;2023-11-21T12:49:15;18.10;64.00
74617;DHT22;63123;50.906;4.198;2023-11-21T12:51:45;18.10;64.20
74617;DHT22;63123;50.906;4.198;2023-11-21T12:54:11;18.10;63.90
74617;DHT22;63123;50.906;4.198;2023-11-21T12:56:38;18.00;63.90
74617;DHT22;63123;50.906;4.198;2023-11-21T12:59:04;18.10;64.00
74617;DHT22;63123;50.906;4.198;2023-11-21T13:01:30;18.10;63.90
74617;DHT22;63123;50.906;4.198;2023-11-21T13:03:59;18.10;63.90
74617;DHT22;63123;50.906;4.198;2023-11-21T13:06:25;18.10;64.00
74617;DHT22;63123;50.906;4.198;2023-11-21T13:08:51;18.10;63.90
74617;DHT22;63123;50.906;4.198;2023-11-21T13:11:17;18.10;64.00
74617;DHT22;63123;50.906;4.198;2023-11-21T13:13:42;18.10;63.90
74617;DHT22;63123;50.906;4.198;2023-11-21T13:16:11;18.10;63.90
74617;DHT22;63123;50.906;4.198;2023-11-21T13:18:37;18.10;63.90
74617;DHT22;63123;50.906;4.198;2023-11-21T13:21:05;18.10;63.90
74617;DHT22;63123;50.906;4.198;2023-11-21T13:23:36;18.10;63.90
74617;DHT22;63123;50.906;4.198;2023-11-21T13:26:03;18.10;63.90
74617;DHT22;63123;50.906;4.198;2023-11-21T13:28:29;18.10;63.90
74617;DHT22;63123;50.906;4.198;2023-11-21T13:30:58;18.10;64.00
74617;DHT22;63123;50.906;4.198;2023-11-21T13:33:28;18.10;64.00
74617;DHT22;63123;50.906;4.198;2023-11-21T13:35:53;18.10;64.00
74617;DHT22;63123;50.906;4.198;2023-11-21T13:38:21;18.10;64.00
74617;DHT22;63123;50.906;4.198;2023-11-21T13:40:49;18.10;64.00
74617;DHT22;63123;50.906;4.198;2023-11-21T13:43:16;18.10;64.00
74617;DHT22;63123;50.906;4.198;2023-11-21T13:45:42;18.10;64.00
74617;DHT22;63123;50.906;4.198;2023-11-21T13:48:08;18.10;64.10
74617;DHT22;63123;50.906;4.198;2023-11-21T13:50:39;18.10;64.10
74617;DHT22;63123;50.906;4.198;2023-11-21T13:53:10;18.10;64.10
74617;DHT22;63123;50.906;4.198;2023-11-21T13:55:48;18.10;64.10
74617;DHT22;63123;50.906;4.198;2023-11-21T13:58:14;18.10;64.00
74617;DHT22;63123;50.906;4.198;2023-11-21T14:00:45;18.10;64.00
74617;DHT22;63123;50.906;4.198;2023-11-21T14:03:12;18.10;64.10
74617;DHT22;63123;50.906;4.198;2023-11-21T14:05:47;18.10;64.00
74617;DHT22;63123;50.906;4.198;2023-11-21T14:08:19;18.10;64.10
74617;DHT22;63123;50.906;4.198;2023-11-21T14:10:49;18.10;64.10
74617;DHT22;63123;50.906;4.198;2023-11-21T14:13:23;18.10;64.10
74617;DHT22;63123;50.906;4.198;2023-11-21T14:15:50;18.10;64.10
74617;DHT22;63123;50.906;4.198;2023-11-21T14:18:17;18.10;64.20
74617;DHT22;63123;50.906;4.198;2023-11-21T14:20:48;18.10;64.20
74617;DHT22;63123;50.906;4.198;2023-11-21T14:23:14;18.10;64.10
74617;DHT22;63123;50.906;4.198;2023-11-21T14:25:40;18.10;64.20
74617;DHT22;63123;50.906;4.198;2023-11-21T14:28:07;18.10;64.10
74617;DHT22;63123;50.906;4.198;2023-11-21T14:30:33;18.10;64.10
74617;DHT22;63123;50.906;4.198;2023-11-21T14:33:01;18.10;64.10
74617;DHT22;63123;50.906;4.198;2023-11-21T14:35:27;18.10;64.10
74617;DHT22;63123;50.906;4.198;2023-11-21T14:37:53;18.10;64.10
74617;DHT22;63123;50.906;4.198;2023-11-21T14:40:18;18.10;64.00
74617;DHT22;63123;50.906;4.198;2023-11-21T14:42:49;18.10;64.10
74617;DHT22;63123;50.906;4.198;2023-11-21T14:45:18;18.10;64.00
74617;DHT22;63123;50.906;4.198;2023-11-21T14:47:46;18.10;63.70
74617;DHT22;63123;50.906;4.198;2023-11-21T14:50:19;18.10;63.70
74617;DHT22;63123;50.906;4.198;2023-11-21T14:53:03;18.10;63.60
74617;DHT22;63123;50.906;4.198;2023-11-21T14:55:34;18.10;63.70
74617;DHT22;63123;50.906;4.198;2023-11-21T14:58:15;18.10;63.50
74617;DHT22;63123;50.906;4.198;2023-11-21T15:00:46;18.10;63.40
74617;DHT22;63123;50.906;4.198;2023-11-21T15:03:13;18.10;63.50
74617;DHT22;63123;50.906;4.198;2023-11-21T15:06:10;18.10;63.40
74617;DHT22;63123;50.906;4.198;2023-11-21T15:08:50;18.10;63.60
74617;DHT22;63123;50.906;4.198;2023-11-21T15:11:33;18.10;63.70
74617;DHT22;63123;50.906;4.198;2023-11-21T15:13:59;18.10;63.40
74617;DHT22;63123;50.906;4.198;2023-11-21T15:16:25;18.10;63.10
74617;DHT22;63123;50.906;4.198;2023-11-21T15:18:52;18.10;63.20
74617;DHT22;63123;50.906;4.198;2023-11-21T15:21:18;18.10;63.30
74617;DHT22;63123;50.906;4.198;2023-11-21T15:23:45;18.10;63.20
74617;DHT22;63123;50.906;4.198;2023-11-21T15:26:10;18.10;63.10
74617;DHT22;63123;50.906;4.198;2023-11-21T15:28:35;18.10;63.10
74617;DHT22;63123;50.906;4.198;2023-11-21T15:31:01;18.10;63.20
74617;DHT22;63123;50.906;4.198;2023-11-21T15:33:28;18.10;63.10
74617;DHT22;63123;50.906;4.198;2023-11-21T15:35:53;18.10;63.20
74617;DHT22;63123;50.906;4.198;2023-11-21T15:38:20;18.10;63.40